createdAt,value
2022-11-14T00:00:34.087Z,101.90
2022-11-14T00:03:17.122Z,98.20
2022-11-14T00:05:49.887Z,101.30
2022-11-14T00:08:24.157Z,90.60
2022-11-14T00:10:57.448Z,111.00
2022-11-14T00:13:29.609Z,105.70
2022-11-14T00:16:02.657Z,136.10
2022-11-14T00:18:34.579Z,127.10
2022-11-14T00:21:07.054Z,145.20
2022-11-14T00:23:39.074Z,175.90
2022-11-14T00:26:11.101Z,147.40
2022-11-14T00:28:44.178Z,128.70
2022-11-14T00:31:18.374Z,135.80
2022-11-14T00:33:51.265Z,177.70
2022-11-14T00:36:24.517Z,155.80
2022-11-14T00:38:58.051Z,161.40
2022-11-14T00:41:29.893Z,175.50
2022-11-14T00:44:03.860Z,192.10
2022-11-14T00:46:39.574Z,240.20
2022-11-14T00:49:12.635Z,178.20
2022-11-14T00:51:45.128Z,282.60
2022-11-14T00:54:17.348Z,239.30
2022-11-14T00:56:51.924Z,204.90
2022-11-14T00:59:23.664Z,161.80
2022-11-14T01:01:58.025Z,154.90
2022-11-14T01:04:32.941Z,165.60
2022-11-14T01:07:05.637Z,145.60
2022-11-14T01:09:39.558Z,147.80
2022-11-14T01:12:11.490Z,224.00
2022-11-14T01:14:43.757Z,195.20
2022-11-14T01:17:16.139Z,199.20
2022-11-14T01:19:48.686Z,241.30
2022-11-14T01:22:20.731Z,161.20
2022-11-14T01:24:55.376Z,160.40
2022-11-14T01:27:28.070Z,160.20
2022-11-14T01:30:00.568Z,180.00
2022-11-14T01:32:32.540Z,159.00
2022-11-14T01:35:05.477Z,147.60
2022-11-14T01:37:37.443Z,144.90
2022-11-14T01:40:12.360Z,146.50
2022-11-14T01:42:45.597Z,143.40
2022-11-14T01:45:52.513Z,133.50
2022-11-14T01:48:28.773Z,146.00
2022-11-14T01:51:05.461Z,172.00
2022-11-14T01:53:39.263Z,182.80
2022-11-14T01:56:16.004Z,186.40
2022-11-14T01:58:55.851Z,157.20
2022-11-14T02:01:27.822Z,163.00
2022-11-14T02:04:05.486Z,185.70
2022-11-14T02:06:39.485Z,174.70
2022-11-14T02:09:11.359Z,150.60
2022-11-14T02:11:46.904Z,132.90
2022-11-14T02:14:19.543Z,168.50
2022-11-14T02:17:07.675Z,122.80
2022-11-14T02:19:49.322Z,139.90
2022-11-14T02:22:21.388Z,139.00
2022-11-14T02:24:53.414Z,161.70
2022-11-14T02:27:25.500Z,158.50
2022-11-14T02:29:59.495Z,159.10
2022-11-14T02:32:56.866Z,167.50
2022-11-14T02:35:26.595Z,154.30
2022-11-14T02:37:58.965Z,150.50
2022-11-14T02:40:32.794Z,145.30
2022-11-14T02:43:08.716Z,131.80
2022-11-14T02:45:41.409Z,111.90
2022-11-14T02:48:13.878Z,115.90
2022-11-14T02:50:45.909Z,93.10
2022-11-14T02:53:18.016Z,95.00
2022-11-14T02:55:49.832Z,96.50
2022-11-14T02:58:22.242Z,102.10
2022-11-14T03:01:19.246Z,87.40
2022-11-14T03:03:46.318Z,96.40
2022-11-14T03:06:19.264Z,76.70
2022-11-14T03:08:51.678Z,75.50
2022-11-14T03:11:23.516Z,81.00
2022-11-14T03:13:55.392Z,85.70
2022-11-14T03:16:27.252Z,80.70
2022-11-14T03:19:00.040Z,76.40
2022-11-14T03:21:32.172Z,78.10
2022-11-14T03:24:05.005Z,102.70
2022-11-14T03:26:37.509Z,77.00
2022-11-14T03:29:12.049Z,88.30
2022-11-14T03:31:45.020Z,73.30
2022-11-14T03:34:17.271Z,72.90
2022-11-14T03:36:49.400Z,83.50
2022-11-14T03:39:22.690Z,82.70
2022-11-14T03:41:55.521Z,78.80
2022-11-14T03:44:31.608Z,69.40
2022-11-14T03:47:04.993Z,85.10
2022-11-14T03:49:37.379Z,55.80
2022-11-14T03:52:11.324Z,73.00
2022-11-14T03:54:43.336Z,65.40
2022-11-14T03:57:15.469Z,97.40
2022-11-14T03:59:47.686Z,60.50
2022-11-14T04:02:20.356Z,61.10
2022-11-14T04:04:52.736Z,64.70
2022-11-14T04:07:28.444Z,83.70
2022-11-14T04:10:01.189Z,58.00
2022-11-14T04:12:33.304Z,62.60
2022-11-14T04:15:05.862Z,60.50
2022-11-14T04:17:40.232Z,57.20
2022-11-14T04:20:15.759Z,58.80
2022-11-14T04:22:50.202Z,71.80
2022-11-14T04:25:26.374Z,58.60
2022-11-14T04:27:58.702Z,57.60
2022-11-14T04:30:34.878Z,72.10
2022-11-14T04:33:09.630Z,62.20
2022-11-14T04:35:41.678Z,64.60
2022-11-14T04:38:15.197Z,64.60
2022-11-14T04:40:52.889Z,73.30
2022-11-14T04:43:26.570Z,76.80
2022-11-14T04:46:01.212Z,68.20
2022-11-14T04:48:34.543Z,67.20
2022-11-14T04:51:07.466Z,64.90
2022-11-14T04:53:40.835Z,77.10
2022-11-14T04:56:14.027Z,68.10
2022-11-14T04:58:46.578Z,72.50
2022-11-14T05:01:19.750Z,58.60
2022-11-14T05:03:52.050Z,73.10
2022-11-14T05:06:23.997Z,70.40
2022-11-14T05:08:56.045Z,83.40
2022-11-14T05:11:29.495Z,81.90
2022-11-14T05:14:03.962Z,92.50
2022-11-14T05:16:37.913Z,104.90
2022-11-14T05:19:13.114Z,111.80
2022-11-14T05:21:47.657Z,85.10
2022-11-14T05:24:21.441Z,96.80
2022-11-14T05:26:54.368Z,71.40
2022-11-14T05:29:27.315Z,69.20
2022-11-14T05:32:01.734Z,59.50
2022-11-14T05:34:36.651Z,59.50
2022-11-14T05:37:09.129Z,55.70
2022-11-14T05:39:42.730Z,56.40
2022-11-14T05:42:15.195Z,59.70
2022-11-14T05:44:47.373Z,53.90
2022-11-14T05:47:23.250Z,50.60
2022-11-14T05:49:56.515Z,49.10
2022-11-14T05:52:28.586Z,47.40
2022-11-14T05:55:02.652Z,45.60
2022-11-14T05:57:38.138Z,51.00
2022-11-14T06:00:13.266Z,43.00
2022-11-14T06:02:47.114Z,59.60
2022-11-14T06:05:19.157Z,44.90
2022-11-14T06:07:51.841Z,47.90
2022-11-14T06:10:25.182Z,37.90
2022-11-14T06:12:58.416Z,45.10
2022-11-14T06:15:31.638Z,44.60
2022-11-14T06:18:06.434Z,41.40
2022-11-14T06:20:40.246Z,45.00
2022-11-14T06:23:12.953Z,47.20
2022-11-14T06:25:47.812Z,54.20
2022-11-14T06:28:20.211Z,43.10
2022-11-14T06:30:52.910Z,46.20
2022-11-14T06:33:25.640Z,49.20
2022-11-14T06:36:02.678Z,50.40
2022-11-14T06:38:39.460Z,47.80
2022-11-14T06:41:12.925Z,71.90
2022-11-14T06:43:48.087Z,64.50
2022-11-14T06:46:21.981Z,49.10
2022-11-14T06:48:54.902Z,53.80
2022-11-14T06:51:27.376Z,52.30
2022-11-14T06:54:01.029Z,42.70
2022-11-14T06:56:33.944Z,41.00
2022-11-14T06:59:09.085Z,45.00
2022-11-14T07:01:45.901Z,40.80
2022-11-14T07:04:18.581Z,47.80
2022-11-14T07:06:51.436Z,40.50
2022-11-14T07:09:25.310Z,45.70
2022-11-14T07:11:59.214Z,39.90
2022-11-14T07:14:32.727Z,52.70
2022-11-14T07:17:06.269Z,33.70
2022-11-14T07:19:40.313Z,38.30
2022-11-14T07:22:12.975Z,31.70
2022-11-14T07:24:46.562Z,29.80
2022-11-14T07:27:20.483Z,34.70
2022-11-14T07:29:53.238Z,30.20
2022-11-14T07:32:25.428Z,28.60
2022-11-14T07:35:01.851Z,42.10
2022-11-14T07:37:34.577Z,37.50
2022-11-14T07:40:09.666Z,37.30
2022-11-14T07:42:41.559Z,47.80
2022-11-14T07:45:14.781Z,32.30
2022-11-14T07:47:47.664Z,41.40
2022-11-14T07:50:20.646Z,34.60
2022-11-14T07:52:56.088Z,34.00
2022-11-14T07:55:30.695Z,49.10
2022-11-14T07:58:05.916Z,34.50
2022-11-14T08:00:39.623Z,35.40
2022-11-14T08:03:11.616Z,35.40
2022-11-14T08:05:44.284Z,41.80
2022-11-14T08:08:16.108Z,45.90
2022-11-14T08:10:48.428Z,48.70
2022-11-14T08:13:36.907Z,41.00
2022-11-14T08:16:13.736Z,42.90
2022-11-14T08:18:50.647Z,46.70
2022-11-14T08:21:23.822Z,44.60
2022-11-14T08:23:56.320Z,40.00
2022-11-14T08:26:33.943Z,39.70
2022-11-14T08:29:06.637Z,27.00
2022-11-14T08:31:42.650Z,26.80
2022-11-14T08:34:17.231Z,37.00
2022-11-14T08:36:50.325Z,31.30
2022-11-14T08:39:24.272Z,28.00
2022-11-14T08:41:58.536Z,27.90
2022-11-14T08:44:33.195Z,36.50
2022-11-14T08:47:05.481Z,33.70
2022-11-14T08:49:39.143Z,31.50
2022-11-14T08:52:16.462Z,36.70
2022-11-14T08:54:52.597Z,35.70
2022-11-14T08:57:27.145Z,35.30
2022-11-14T09:00:01.693Z,37.00
2022-11-14T09:02:36.321Z,42.60
2022-11-14T09:05:10.323Z,39.10
2022-11-14T09:07:42.257Z,34.50
2022-11-14T09:10:16.557Z,44.80
2022-11-14T09:12:48.395Z,43.80
2022-11-14T09:15:22.566Z,46.40
2022-11-14T09:17:57.166Z,47.50
2022-11-14T09:20:34.159Z,36.20
2022-11-14T09:23:11.253Z,42.50
2022-11-14T09:25:43.064Z,44.90
2022-11-14T09:28:15.677Z,47.50
2022-11-14T09:30:48.793Z,57.80
2022-11-14T09:33:22.489Z,57.70
2022-11-14T09:36:00.277Z,57.60
2022-11-14T09:38:38.237Z,39.60
2022-11-14T09:41:26.418Z,92.30
2022-11-14T09:44:20.681Z,85.10
2022-11-14T09:46:57.361Z,51.60
2022-11-14T09:49:39.767Z,61.00
2022-11-14T09:52:20.749Z,67.30
2022-11-14T09:54:57.582Z,81.60
2022-11-14T09:57:30.797Z,52.00
2022-11-14T10:00:03.817Z,55.90
2022-11-14T10:02:44.393Z,37.80
2022-11-14T10:05:26.282Z,36.90
2022-11-14T10:08:08.596Z,34.00
2022-11-14T10:11:04.331Z,39.70
2022-11-14T10:14:18.686Z,36.60
2022-11-14T10:17:00.466Z,47.20
2022-11-14T10:19:42.666Z,45.10
2022-11-14T10:22:23.300Z,34.00
2022-11-14T10:25:19.267Z,38.60
2022-11-14T10:28:05.180Z,45.50
2022-11-14T10:30:45.393Z,45.20
2022-11-14T10:33:25.054Z,44.10
2022-11-14T10:36:02.751Z,36.90
2022-11-14T10:38:40.337Z,36.30
2022-11-14T10:41:34.669Z,35.20
2022-11-14T10:44:13.639Z,30.40
2022-11-14T10:46:49.457Z,32.30
2022-11-14T10:49:24.092Z,46.90
2022-11-14T10:51:59.469Z,36.80
2022-11-14T10:54:37.510Z,50.50
2022-11-14T10:57:18.635Z,34.90
2022-11-14T10:59:51.913Z,38.30
2022-11-14T11:02:26.522Z,34.30
2022-11-14T11:05:14.115Z,37.90
2022-11-14T11:08:36.117Z,42.80
2022-11-14T11:11:21.511Z,44.80
2022-11-14T11:13:57.281Z,52.60
2022-11-14T11:16:30.117Z,41.50
2022-11-14T11:19:20.104Z,36.10
2022-11-14T11:21:54.453Z,38.30
2022-11-14T11:24:37.637Z,41.70
2022-11-14T11:27:24.286Z,42.50
2022-11-14T11:30:09.188Z,44.20
2022-11-14T11:32:40.982Z,36.90
2022-11-14T11:35:15.995Z,37.20
2022-11-14T11:37:55.198Z,33.10
2022-11-14T11:40:29.547Z,32.00
2022-11-14T11:45:57.786Z,28.60
2022-11-14T11:48:36.033Z,34.70
2022-11-14T11:51:12.373Z,29.00
2022-11-14T11:53:47.864Z,31.30
2022-11-14T11:56:22.945Z,26.80
2022-11-14T11:58:58.677Z,28.30
2022-11-14T12:01:30.620Z,24.40
2022-11-14T12:04:04.621Z,62.20
2022-11-14T12:06:43.159Z,26.70
2022-11-14T12:09:19.420Z,25.70
2022-11-14T12:11:56.194Z,22.30
2022-11-14T12:14:38.423Z,33.90
2022-11-14T12:17:36.004Z,26.40
2022-11-14T12:20:36.050Z,24.70
2022-11-14T12:23:35.728Z,24.10
2022-11-14T12:26:23.802Z,20.10
2022-11-14T12:29:14.320Z,20.20
2022-11-14T12:31:46.838Z,24.80
2022-11-14T12:34:24.251Z,20.70
2022-11-14T12:36:58.885Z,19.60
2022-11-14T12:39:31.547Z,21.20
2022-11-14T12:42:09.125Z,22.20
2022-11-14T12:44:42.417Z,21.30
2022-11-14T12:47:32.566Z,23.40
2022-11-14T12:50:35.160Z,20.80
2022-11-14T12:53:47.819Z,22.90
2022-11-14T12:56:54.167Z,28.10
2022-11-14T12:59:38.442Z,26.90
2022-11-14T13:02:29.516Z,26.10
2022-11-14T13:05:23.494Z,27.90
2022-11-14T13:08:07.475Z,26.80
2022-11-14T13:10:42.062Z,26.60
2022-11-14T13:13:35.410Z,25.80
2022-11-14T13:16:54.988Z,33.20
2022-11-14T13:19:47.285Z,46.50
2022-11-14T13:22:41.395Z,37.80
2022-11-14T13:25:24.397Z,25.50
2022-11-14T13:28:07.780Z,22.60
2022-11-14T13:31:18.212Z,29.20
2022-11-14T13:33:53.614Z,40.20
2022-11-14T13:36:31.855Z,51.10
2022-11-14T13:39:26.409Z,45.40
2022-11-14T13:42:12.586Z,27.70
2022-11-14T13:45:34.448Z,27.70
2022-11-14T13:48:47.588Z,30.80
2022-11-14T13:51:42.399Z,31.90
2022-11-14T13:54:18.798Z,31.50
2022-11-14T13:57:04.261Z,38.80
2022-11-14T13:59:54.704Z,37.70
2022-11-14T14:02:53.276Z,41.00
2022-11-14T14:05:36.596Z,53.20
2022-11-14T14:08:25.908Z,43.90
2022-11-14T14:11:09.476Z,32.10
2022-11-14T14:13:54.002Z,42.20
2022-11-14T14:16:35.021Z,43.20
2022-11-14T14:19:13.197Z,42.90
2022-11-14T14:21:49.948Z,56.40
2022-11-14T14:24:33.542Z,49.60
2022-11-14T14:27:13.999Z,51.70
2022-11-14T14:29:54.126Z,61.30
2022-11-14T14:32:26.981Z,69.10
2022-11-14T14:35:01.008Z,68.10
2022-11-14T14:37:33.577Z,64.10
2022-11-14T14:40:08.855Z,62.30
2022-11-14T14:42:47.267Z,60.40
2022-11-14T14:45:21.854Z,69.70
2022-11-14T14:48:03.648Z,58.40
2022-11-14T14:50:42.536Z,55.50
2022-11-14T14:53:23.485Z,57.00
2022-11-14T14:55:58.042Z,62.60
2022-11-14T14:58:33.692Z,58.10
2022-11-14T15:01:08.962Z,60.70
2022-11-14T15:03:43.332Z,87.90
2022-11-14T15:06:30.088Z,74.70
2022-11-14T15:09:05.107Z,56.80
2022-11-14T15:11:38.436Z,62.50
2022-11-14T15:14:15.699Z,67.10
2022-11-14T15:16:50.859Z,64.70
2022-11-14T15:19:26.507Z,85.00
2022-11-14T15:22:06.822Z,65.70
2022-11-14T15:24:39.696Z,68.70
2022-11-14T15:27:17.174Z,59.40
2022-11-14T15:29:52.165Z,67.80
2022-11-14T15:32:26.126Z,75.70
2022-11-14T15:35:29.512Z,77.80
2022-11-14T15:38:43.232Z,76.30
2022-11-14T15:41:23.049Z,66.00
2022-11-14T15:44:04.024Z,91.80
2022-11-14T15:46:44.116Z,83.60
2022-11-14T15:49:23.870Z,67.10
2022-11-14T15:51:58.139Z,68.20
2022-11-14T15:54:32.205Z,64.00
2022-11-14T15:57:07.943Z,72.30
2022-11-14T15:59:39.860Z,73.80
2022-11-14T16:02:18.360Z,58.70
2022-11-14T16:04:53.941Z,56.80
2022-11-14T16:07:26.581Z,56.80
2022-11-14T16:10:00.502Z,56.50
2022-11-14T16:12:33.235Z,61.40
2022-11-14T16:15:07.768Z,73.20
2022-11-14T16:17:43.409Z,53.50
2022-11-14T16:20:19.237Z,46.80
2022-11-14T16:22:53.685Z,46.10
2022-11-14T16:25:27.283Z,48.80
2022-11-14T16:28:04.035Z,53.60
2022-11-14T16:30:40.383Z,52.30
2022-11-14T16:33:12.704Z,53.00
2022-11-14T16:35:45.389Z,52.70
2022-11-14T16:38:21.687Z,48.50
2022-11-14T16:40:53.469Z,48.70
2022-11-14T16:43:30.151Z,51.30
2022-11-14T16:46:06.238Z,49.10
2022-11-14T16:48:38.302Z,48.50
2022-11-14T16:51:40.876Z,48.30
2022-11-14T16:54:07.985Z,50.10
2022-11-14T16:56:40.511Z,48.80
2022-11-14T16:59:15.280Z,47.30
2022-11-14T17:01:48.422Z,50.00
2022-11-14T17:04:23.753Z,60.10
2022-11-14T17:06:56.801Z,58.10
2022-11-14T17:09:29.816Z,54.00
2022-11-14T17:12:04.976Z,51.00
2022-11-14T17:14:38.389Z,56.70
2022-11-14T17:17:11.102Z,60.20
2022-11-14T17:19:46.240Z,59.40
2022-11-14T17:22:22.176Z,61.20
2022-11-14T17:24:56.585Z,60.10
2022-11-14T17:27:29.346Z,63.30
2022-11-14T17:30:28.688Z,60.80
2022-11-14T17:33:01.657Z,59.40
2022-11-14T17:35:41.097Z,58.10
2022-11-14T17:38:15.674Z,59.90
2022-11-14T17:40:51.110Z,58.30
2022-11-14T17:43:27.945Z,55.00
2022-11-14T17:46:03.991Z,59.80
2022-11-14T17:48:37.993Z,55.60
2022-11-14T17:51:13.792Z,56.20
2022-11-14T17:53:46.714Z,57.50
2022-11-14T17:56:20.722Z,56.20
2022-11-14T17:59:06.385Z,57.50
2022-11-14T18:01:39.214Z,60.70
2022-11-14T18:04:18.361Z,62.30
2022-11-14T18:06:52.545Z,63.00
2022-11-14T18:09:29.823Z,65.60
2022-11-14T18:12:04.010Z,68.20
2022-11-14T18:14:38.983Z,66.50
2022-11-14T18:17:14.541Z,66.40
2022-11-14T18:19:56.932Z,68.70
2022-11-14T18:22:35.223Z,68.40
2022-11-14T18:25:13.785Z,75.90
2022-11-14T18:27:49.848Z,76.40
2022-11-14T18:30:40.818Z,71.60
2022-11-14T18:33:13.576Z,70.40
2022-11-14T18:35:47.521Z,69.10
2022-11-14T18:38:19.661Z,66.80
2022-11-14T18:40:57.506Z,65.80
2022-11-14T18:43:32.977Z,73.80
2022-11-14T18:46:10.262Z,69.30
2022-11-14T18:48:45.050Z,65.70
2022-11-14T18:51:20.931Z,63.80
2022-11-14T18:53:57.852Z,65.80
2022-11-14T18:56:30.767Z,65.60
2022-11-14T18:59:03.388Z,59.80
2022-11-14T19:01:39.489Z,58.00
2022-11-14T19:04:17.963Z,59.60
2022-11-14T19:06:54.200Z,62.50
2022-11-14T19:09:26.355Z,63.70
2022-11-14T19:12:25.803Z,65.30
2022-11-14T19:15:01.370Z,61.00
2022-11-14T19:17:36.795Z,60.20
2022-11-14T19:20:14.683Z,56.20
2022-11-14T19:22:47.903Z,60.40
2022-11-14T19:25:21.309Z,58.20
2022-11-14T19:27:56.438Z,60.80
2022-11-14T19:30:28.372Z,60.40
2022-11-14T19:33:00.928Z,60.90
2022-11-14T19:35:34.261Z,61.30
2022-11-14T19:38:08.376Z,57.20
2022-11-14T19:40:40.978Z,56.00
2022-11-14T19:43:15.494Z,58.30
2022-11-14T19:45:47.676Z,56.30
2022-11-14T19:48:21.876Z,56.80
2022-11-14T19:51:03.963Z,54.70
2022-11-14T19:53:41.926Z,56.50
2022-11-14T19:56:17.508Z,61.20
2022-11-14T19:58:50.800Z,57.70
2022-11-14T20:01:25.693Z,60.60
2022-11-14T20:04:00.467Z,63.20
2022-11-14T20:06:35.201Z,60.00
2022-11-14T20:09:09.307Z,63.60
2022-11-14T20:11:44.753Z,59.50
2022-11-14T20:14:20.794Z,67.90
2022-11-14T20:16:53.216Z,58.80
2022-11-14T20:19:27.711Z,60.40
2022-11-14T20:22:00.492Z,62.60
2022-11-14T20:24:33.704Z,77.20
2022-11-14T20:27:08.206Z,60.60
2022-11-14T20:29:41.460Z,60.90
2022-11-14T20:32:15.916Z,63.60
2022-11-14T20:34:48.946Z,62.90
2022-11-14T20:37:22.357Z,72.90
2022-11-14T20:39:54.598Z,74.20
2022-11-14T20:42:27.564Z,69.10
2022-11-14T20:45:04.109Z,68.00
2022-11-14T20:47:36.715Z,66.40
2022-11-14T20:50:10.643Z,63.30
2022-11-14T20:52:46.397Z,75.50
2022-11-14T20:55:20.638Z,69.60
2022-11-14T20:57:53.916Z,66.10
2022-11-14T21:00:27.580Z,69.10
2022-11-14T21:03:00.814Z,70.40
2022-11-14T21:05:35.153Z,69.50
2022-11-14T21:08:09.074Z,71.90
2022-11-14T21:10:48.840Z,73.40
2022-11-14T21:13:40.380Z,74.90
2022-11-14T21:16:14.903Z,81.40
2022-11-14T21:18:48.244Z,80.40
2022-11-14T21:21:25.201Z,83.00
2022-11-14T21:23:58.660Z,72.30
2022-11-14T21:26:32.490Z,77.20
2022-11-14T21:29:06.216Z,72.60
2022-11-14T21:31:39.942Z,70.10
2022-11-14T21:34:16.357Z,68.20
2022-11-14T21:36:50.191Z,66.00
2022-11-14T21:39:25.401Z,66.20
2022-11-14T21:41:59.589Z,64.90
2022-11-14T21:44:31.917Z,63.50
2022-11-14T21:47:06.141Z,67.40
2022-11-14T21:49:39.091Z,73.10
2022-11-14T21:52:11.609Z,69.50
2022-11-14T21:54:46.033Z,81.00
2022-11-14T21:57:21.885Z,74.40
2022-11-14T21:59:54.010Z,66.60
2022-11-14T22:02:46.023Z,67.70
2022-11-14T22:05:18.776Z,70.70
2022-11-14T22:07:51.202Z,79.30
2022-11-14T22:10:25.560Z,72.40
2022-11-14T22:12:58.857Z,72.20
2022-11-14T22:15:31.159Z,66.60
2022-11-14T22:18:03.170Z,73.50
2022-11-14T22:20:35.115Z,70.80
2022-11-14T22:23:08.712Z,71.40
2022-11-14T22:25:41.148Z,74.70
2022-11-14T22:28:13.307Z,80.50
2022-11-14T22:30:48.964Z,70.30
2022-11-14T22:33:21.916Z,72.70
2022-11-14T22:35:54.404Z,94.60
2022-11-14T22:38:27.660Z,125.70
2022-11-14T22:41:02.284Z,80.70
2022-11-14T22:43:35.120Z,78.90
2022-11-14T22:46:10.717Z,74.80
2022-11-14T22:48:43.810Z,87.40
2022-11-14T22:51:18.841Z,76.30
2022-11-14T22:53:53.115Z,84.80
2022-11-14T22:56:29.784Z,80.50
2022-11-14T22:59:02.922Z,84.00
2022-11-14T23:01:36.027Z,109.30
2022-11-14T23:04:10.005Z,95.10
2022-11-14T23:06:42.521Z,77.60
2022-11-14T23:09:14.678Z,79.90
2022-11-14T23:11:47.313Z,92.60
2022-11-14T23:14:19.745Z,108.70
2022-11-14T23:16:52.364Z,94.40
2022-11-14T23:19:26.634Z,93.70
2022-11-14T23:21:58.563Z,101.30
2022-11-14T23:24:32.017Z,92.70
2022-11-14T23:27:06.397Z,85.10
2022-11-14T23:29:38.679Z,101.00
2022-11-14T23:32:11.316Z,114.30
2022-11-14T23:34:47.517Z,117.00
2022-11-14T23:37:21.007Z,116.10
2022-11-14T23:39:53.613Z,117.50
2022-11-14T23:42:25.416Z,102.30
2022-11-14T23:44:58.739Z,101.30
2022-11-14T23:47:35.038Z,114.50
2022-11-14T23:50:10.605Z,125.00
2022-11-14T23:52:43.842Z,106.20
2022-11-14T23:55:17.290Z,114.90
2022-11-14T23:57:50.334Z,136.10
